sensor_id;sensor_type;location;lat;lon;timestamp;temperature;humidity
34837;DHT22;21053;50.848;4.652;2023-02-07T00:01:34;1.40;99.90
34837;DHT22;21053;50.848;4.652;2023-02-07T00:04:02;1.30;99.90
34837;DHT22;21053;50.848;4.652;2023-02-07T00:06:32;1.30;99.90
34837;DHT22;21053;50.848;4.652;2023-02-07T00:09:02;1.30;99.90
34837;DHT22;21053;50.848;4.652;2023-02-07T00:11:30;1.20;99.90
34837;DHT22;21053;50.848;4.652;2023-02-07T00:13:59;1.20;99.90
34837;DHT22;21053;50.848;4.652;2023-02-07T00:16:28;1.20;99.90
34837;DHT22;21053;50.848;4.652;2023-02-07T00:18:57;1.00;99.90
34837;DHT22;21053;50.848;4.652;2023-02-07T00:21:26;0.90;99.90
34837;DHT22;21053;50.848;4.652;2023-02-07T00:23:59;0.90;99.90
34837;DHT22;21053;50.848;4.652;2023-02-07T00:26:25;0.90;99.90
34837;DHT22;21053;50.848;4.652;2023-02-07T00:28:57;1.00;99.90
34837;DHT22;21053;50.848;4.652;2023-02-07T00:31:29;1.00;99.90
34837;DHT22;21053;50.848;4.652;2023-02-07T00:35:00;1.00;99.90
34837;DHT22;21053;50.848;4.652;2023-02-07T00:37:29;1.10;99.90
34837;DHT22;21053;50.848;4.652;2023-02-07T00:39:58;1.10;99.90
34837;DHT22;21053;50.848;4.652;2023-02-07T00:42:25;1.10;99.90
34837;DHT22;21053;50.848;4.652;2023-02-07T00:44:52;1.00;99.90
34837;DHT22;21053;50.848;4.652;2023-02-07T00:47:20;1.10;99.90
34837;DHT22;21053;50.848;4.652;2023-02-07T00:49:48;0.80;99.90
34837;DHT22;21053;50.848;4.652;2023-02-07T00:52:17;0.80;99.90
34837;DHT22;21053;50.848;4.652;2023-02-07T00:54:46;0.80;99.90
34837;DHT22;21053;50.848;4.652;2023-02-07T00:57:15;3.10;99.90
34837;DHT22;21053;50.848;4.652;2023-02-07T00:59:40;0.90;99.90
34837;DHT22;21053;50.848;4.652;2023-02-07T01:02:07;0.80;99.90
34837;DHT22;21053;50.848;4.652;2023-02-07T01:04:34;0.80;99.90
34837;DHT22;21053;50.848;4.652;2023-02-07T01:07:04;0.90;99.90
34837;DHT22;21053;50.848;4.652;2023-02-07T01:09:30;0.90;99.90
34837;DHT22;21053;50.848;4.652;2023-02-07T01:11:58;0.80;99.90
34837;DHT22;21053;50.848;4.652;2023-02-07T01:16:56;0.70;99.90
34837;DHT22;21053;50.848;4.652;2023-02-07T01:19:25;0.70;99.90
34837;DHT22;21053;50.848;4.652;2023-02-07T01:21:57;0.60;99.90
34837;DHT22;21053;50.848;4.652;2023-02-07T01:24:24;0.60;99.90
34837;DHT22;21053;50.848;4.652;2023-02-07T01:26:50;0.50;99.90
34837;DHT22;21053;50.848;4.652;2023-02-07T01:29:19;0.60;99.90
34837;DHT22;21053;50.848;4.652;2023-02-07T01:31:46;0.70;99.90
34837;DHT22;21053;50.848;4.652;2023-02-07T01:34:15;2.20;99.90
34837;DHT22;21053;50.848;4.652;2023-02-07T01:36:43;0.60;99.90
34837;DHT22;21053;50.848;4.652;2023-02-07T01:39:09;0.60;99.90
34837;DHT22;21053;50.848;4.652;2023-02-07T01:41:38;0.50;99.90
34837;DHT22;21053;50.848;4.652;2023-02-07T01:44:05;0.60;99.90
34837;DHT22;21053;50.848;4.652;2023-02-07T01:46:34;0.70;99.90
34837;DHT22;21053;50.848;4.652;2023-02-07T01:49:07;0.70;99.90
34837;DHT22;21053;50.848;4.652;2023-02-07T01:51:37;0.40;99.90
34837;DHT22;21053;50.848;4.652;2023-02-07T01:54:10;0.40;99.90
34837;DHT22;21053;50.848;4.652;2023-02-07T01:56:43;0.40;99.90
34837;DHT22;21053;50.848;4.652;2023-02-07T01:59:10;0.50;99.90
34837;DHT22;21053;50.848;4.652;2023-02-07T02:01:39;0.50;99.90
34837;DHT22;21053;50.848;4.652;2023-02-07T02:04:06;0.40;99.90
34837;DHT22;21053;50.848;4.652;2023-02-07T02:06:33;0.30;99.90
34837;DHT22;21053;50.848;4.652;2023-02-07T02:09:11;0.30;99.90
34837;DHT22;21053;50.848;4.652;2023-02-07T02:29:08;0.20;99.90
34837;DHT22;21053;50.848;4.652;2023-02-07T02:34:42;0.30;99.90
34837;DHT22;21053;50.848;4.652;2023-02-07T02:37:29;3.40;99.90
34837;DHT22;21053;50.848;4.652;2023-02-07T02:42:54;0.00;99.90
34837;DHT22;21053;50.848;4.652;2023-02-07T02:45:35;0.00;99.90
34837;DHT22;21053;50.848;4.652;2023-02-07T02:48:05;0.10;99.90
34837;DHT22;21053;50.848;4.652;2023-02-07T02:50:33;0.10;99.90
34837;DHT22;21053;50.848;4.652;2023-02-07T02:53:01;0.20;99.90
34837;DHT22;21053;50.848;4.652;2023-02-07T02:58:50;-0.10;99.90
34837;DHT22;21053;50.848;4.652;2023-02-07T03:12:37;-0.30;99.90
34837;DHT22;21053;50.848;4.652;2023-02-07T03:20:18;-0.20;99.90
34837;DHT22;21053;50.848;4.652;2023-02-07T03:22:49;-0.20;99.90
34837;DHT22;21053;50.848;4.652;2023-02-07T03:25:22;-0.20;99.90
34837;DHT22;21053;50.848;4.652;2023-02-07T03:27:51;-0.30;99.90
34837;DHT22;21053;50.848;4.652;2023-02-07T03:30:23;-0.30;99.90
34837;DHT22;21053;50.848;4.652;2023-02-07T03:32:54;-0.20;99.90
34837;DHT22;21053;50.848;4.652;2023-02-07T03:35:31;-0.10;99.90
34837;DHT22;21053;50.848;4.652;2023-02-07T03:38:02;-0.10;99.90
34837;DHT22;21053;50.848;4.652;2023-02-07T03:40:46;-0.30;99.90
34837;DHT22;21053;50.848;4.652;2023-02-07T03:43:33;-0.50;99.90
34837;DHT22;21053;50.848;4.652;2023-02-07T03:46:01;-0.50;99.90
34837;DHT22;21053;50.848;4.652;2023-02-07T03:48:30;-0.50;99.90
34837;DHT22;21053;50.848;4.652;2023-02-07T03:51:02;-0.40;99.90
34837;DHT22;21053;50.848;4.652;2023-02-07T03:53:30;-0.50;99.90
34837;DHT22;21053;50.848;4.652;2023-02-07T03:55:58;-0.50;99.90
34837;DHT22;21053;50.848;4.652;2023-02-07T03:58:26;-0.40;99.90
34837;DHT22;21053;50.848;4.652;2023-02-07T04:00:55;-0.40;99.90
34837;DHT22;21053;50.848;4.652;2023-02-07T04:03:30;-0.40;99.90
34837;DHT22;21053;50.848;4.652;2023-02-07T04:05:56;-0.40;99.90
34837;DHT22;21053;50.848;4.652;2023-02-07T04:08:24;-0.50;99.90
34837;DHT22;21053;50.848;4.652;2023-02-07T04:11:02;-0.50;99.90
34837;DHT22;21053;50.848;4.652;2023-02-07T04:13:31;-0.50;99.90
34837;DHT22;21053;50.848;4.652;2023-02-07T04:16:00;-0.70;99.90
34837;DHT22;21053;50.848;4.652;2023-02-07T04:18:27;-0.90;99.90
34837;DHT22;21053;50.848;4.652;2023-02-07T04:21:03;-0.90;99.90
34837;DHT22;21053;50.848;4.652;2023-02-07T04:23:32;-0.80;99.90
34837;DHT22;21053;50.848;4.652;2023-02-07T04:26:00;-0.70;99.90
34837;DHT22;21053;50.848;4.652;2023-02-07T04:28:27;-0.70;99.90
34837;DHT22;21053;50.848;4.652;2023-02-07T04:31:02;-0.80;99.90
34837;DHT22;21053;50.848;4.652;2023-02-07T04:33:27;-0.80;99.90
34837;DHT22;21053;50.848;4.652;2023-02-07T04:35:56;-0.80;99.90
34837;DHT22;21053;50.848;4.652;2023-02-07T04:38:25;-0.90;99.90
34837;DHT22;21053;50.848;4.652;2023-02-07T04:40:58;-0.70;99.90
34837;DHT22;21053;50.848;4.652;2023-02-07T04:43:25;-0.80;99.90
34837;DHT22;21053;50.848;4.652;2023-02-07T04:45:54;-0.80;99.90
34837;DHT22;21053;50.848;4.652;2023-02-07T04:48:23;-0.80;99.90
34837;DHT22;21053;50.848;4.652;2023-02-07T04:50:52;-0.80;99.90
34837;DHT22;21053;50.848;4.652;2023-02-07T04:53:19;-0.80;99.90
34837;DHT22;21053;50.848;4.652;2023-02-07T04:55:58;-0.80;99.90
34837;DHT22;21053;50.848;4.652;2023-02-07T04:58:23;-0.80;99.90
34837;DHT22;21053;50.848;4.652;2023-02-07T05:01:00;-0.80;99.90
34837;DHT22;21053;50.848;4.652;2023-02-07T05:03:28;-0.80;99.90
34837;DHT22;21053;50.848;4.652;2023-02-07T05:05:55;-0.80;99.90
34837;DHT22;21053;50.848;4.652;2023-02-07T05:08:25;-0.90;99.90
34837;DHT22;21053;50.848;4.652;2023-02-07T05:10:55;-1.00;99.90
34837;DHT22;21053;50.848;4.652;2023-02-07T05:13:22;-1.00;99.90
34837;DHT22;21053;50.848;4.652;2023-02-07T05:15:51;-0.90;99.90
34837;DHT22;21053;50.848;4.652;2023-02-07T05:18:20;-0.80;99.90
34837;DHT22;21053;50.848;4.652;2023-02-07T05:20:48;-1.00;99.90
34837;DHT22;21053;50.848;4.652;2023-02-07T05:23:17;-1.00;99.90
34837;DHT22;21053;50.848;4.652;2023-02-07T05:25:46;-1.10;99.90
34837;DHT22;21053;50.848;4.652;2023-02-07T05:28:16;-1.20;99.90
34837;DHT22;21053;50.848;4.652;2023-02-07T05:30:42;-1.10;99.90
34837;DHT22;21053;50.848;4.652;2023-02-07T05:33:12;-1.10;99.90
34837;DHT22;21053;50.848;4.652;2023-02-07T05:35:42;-1.20;99.90
34837;DHT22;21053;50.848;4.652;2023-02-07T05:38:11;-1.30;99.90
34837;DHT22;21053;50.848;4.652;2023-02-07T05:40:40;-1.10;99.90
34837;DHT22;21053;50.848;4.652;2023-02-07T05:43:10;-1.30;99.90
34837;DHT22;21053;50.848;4.652;2023-02-07T05:45:39;-1.30;99.90
34837;DHT22;21053;50.848;4.652;2023-02-07T05:48:08;-1.20;99.90
34837;DHT22;21053;50.848;4.652;2023-02-07T05:50:35;-1.10;99.90
34837;DHT22;21053;50.848;4.652;2023-02-07T05:53:04;-1.10;99.90
34837;DHT22;21053;50.848;4.652;2023-02-07T05:55:33;-1.20;99.90
34837;DHT22;21053;50.848;4.652;2023-02-07T05:58:02;-1.20;99.90
34837;DHT22;21053;50.848;4.652;2023-02-07T06:00:29;-1.20;99.90
34837;DHT22;21053;50.848;4.652;2023-02-07T06:02:58;-1.20;99.90
34837;DHT22;21053;50.848;4.652;2023-02-07T06:05:24;-1.40;99.90
34837;DHT22;21053;50.848;4.652;2023-02-07T06:07:55;-1.40;99.90
34837;DHT22;21053;50.848;4.652;2023-02-07T06:10:21;-1.40;99.90
34837;DHT22;21053;50.848;4.652;2023-02-07T06:12:48;-1.50;99.90
34837;DHT22;21053;50.848;4.652;2023-02-07T06:15:16;-1.40;99.90
34837;DHT22;21053;50.848;4.652;2023-02-07T06:17:44;-1.50;99.90
34837;DHT22;21053;50.848;4.652;2023-02-07T06:20:16;-1.40;99.90
34837;DHT22;21053;50.848;4.652;2023-02-07T06:22:45;-1.30;99.90
34837;DHT22;21053;50.848;4.652;2023-02-07T06:25:15;-1.30;99.90
34837;DHT22;21053;50.848;4.652;2023-02-07T06:27:43;-1.50;99.90
34837;DHT22;21053;50.848;4.652;2023-02-07T06:30:11;-1.60;99.90
34837;DHT22;21053;50.848;4.652;2023-02-07T06:32:40;-1.60;99.90
34837;DHT22;21053;50.848;4.652;2023-02-07T06:35:07;-1.50;99.90
34837;DHT22;21053;50.848;4.652;2023-02-07T06:37:33;-1.50;99.90
34837;DHT22;21053;50.848;4.652;2023-02-07T06:40:02;-1.50;99.90
34837;DHT22;21053;50.848;4.652;2023-02-07T06:42:31;-1.60;99.90
34837;DHT22;21053;50.848;4.652;2023-02-07T06:45:00;-1.70;99.90
34837;DHT22;21053;50.848;4.652;2023-02-07T06:47:28;-1.70;99.90
34837;DHT22;21053;50.848;4.652;2023-02-07T06:49:57;-1.70;99.90
34837;DHT22;21053;50.848;4.652;2023-02-07T06:52:29;-1.90;99.90
34837;DHT22;21053;50.848;4.652;2023-02-07T06:54:58;-1.80;99.90
34837;DHT22;21053;50.848;4.652;2023-02-07T06:57:23;-1.80;99.90
34837;DHT22;21053;50.848;4.652;2023-02-07T06:59:51;-1.70;99.90
34837;DHT22;21053;50.848;4.652;2023-02-07T07:02:20;-1.70;99.90
34837;DHT22;21053;50.848;4.652;2023-02-07T07:04:48;-1.70;99.90
34837;DHT22;21053;50.848;4.652;2023-02-07T07:07:20;-1.70;99.90
34837;DHT22;21053;50.848;4.652;2023-02-07T07:09:47;-1.70;99.90
34837;DHT22;21053;50.848;4.652;2023-02-07T07:12:16;-1.70;99.90
34837;DHT22;21053;50.848;4.652;2023-02-07T07:14:44;-1.70;99.90
34837;DHT22;21053;50.848;4.652;2023-02-07T07:17:13;-1.60;99.90
34837;DHT22;21053;50.848;4.652;2023-02-07T07:22:09;-1.70;99.90
34837;DHT22;21053;50.848;4.652;2023-02-07T07:24:35;-1.70;99.90
34837;DHT22;21053;50.848;4.652;2023-02-07T07:27:02;-1.60;99.90
34837;DHT22;21053;50.848;4.652;2023-02-07T07:29:30;-1.70;99.90
34837;DHT22;21053;50.848;4.652;2023-02-07T07:31:56;-1.80;99.90
34837;DHT22;21053;50.848;4.652;2023-02-07T07:34:22;-1.70;99.90
34837;DHT22;21053;50.848;4.652;2023-02-07T07:36:50;-1.70;99.90
34837;DHT22;21053;50.848;4.652;2023-02-07T07:39:24;-1.70;99.90
34837;DHT22;21053;50.848;4.652;2023-02-07T07:41:53;-1.80;99.90
34837;DHT22;21053;50.848;4.652;2023-02-07T07:44:21;-1.70;99.90
34837;DHT22;21053;50.848;4.652;2023-02-07T07:46:50;-1.70;99.90
34837;DHT22;21053;50.848;4.652;2023-02-07T07:49:18;-1.70;99.90
34837;DHT22;21053;50.848;4.652;2023-02-07T07:51:43;-1.60;99.90
34837;DHT22;21053;50.848;4.652;2023-02-07T07:54:12;-1.60;99.90
34837;DHT22;21053;50.848;4.652;2023-02-07T07:56:40;-1.50;99.90
34837;DHT22;21053;50.848;4.652;2023-02-07T07:59:08;-1.30;99.90
34837;DHT22;21053;50.848;4.652;2023-02-07T08:01:37;-1.20;99.90
34837;DHT22;21053;50.848;4.652;2023-02-07T08:04:04;-1.30;99.90
34837;DHT22;21053;50.848;4.652;2023-02-07T08:06:33;-1.20;99.90
34837;DHT22;21053;50.848;4.652;2023-02-07T08:09:03;-1.10;99.90
34837;DHT22;21053;50.848;4.652;2023-02-07T08:11:30;-1.10;99.90
34837;DHT22;21053;50.848;4.652;2023-02-07T08:14:02;1.50;99.90
34837;DHT22;21053;50.848;4.652;2023-02-07T08:16:31;-0.90;99.90
34837;DHT22;21053;50.848;4.652;2023-02-07T08:18:59;-0.90;99.90
34837;DHT22;21053;50.848;4.652;2023-02-07T08:21:26;-0.90;99.90
34837;DHT22;21053;50.848;4.652;2023-02-07T08:23:52;-0.90;99.90
34837;DHT22;21053;50.848;4.652;2023-02-07T08:26:21;-0.80;99.90
34837;DHT22;21053;50.848;4.652;2023-02-07T08:28:55;-0.70;99.90
34837;DHT22;21053;50.848;4.652;2023-02-07T08:31:22;-0.60;99.90
34837;DHT22;21053;50.848;4.652;2023-02-07T08:33:49;-0.50;99.90
34837;DHT22;21053;50.848;4.652;2023-02-07T08:36:19;-0.40;99.90
34837;DHT22;21053;50.848;4.652;2023-02-07T08:38:46;-0.30;99.90
34837;DHT22;21053;50.848;4.652;2023-02-07T08:41:14;-0.40;99.90
34837;DHT22;21053;50.848;4.652;2023-02-07T08:43:44;0.00;99.90
34837;DHT22;21053;50.848;4.652;2023-02-07T08:46:13;0.00;99.90
34837;DHT22;21053;50.848;4.652;2023-02-07T08:48:39;0.10;99.90
34837;DHT22;21053;50.848;4.652;2023-02-07T08:51:11;0.10;99.90
34837;DHT22;21053;50.848;4.652;2023-02-07T08:53:36;0.20;99.90
34837;DHT22;21053;50.848;4.652;2023-02-07T08:56:04;0.40;99.90
34837;DHT22;21053;50.848;4.652;2023-02-07T08:58:32;0.60;99.90
34837;DHT22;21053;50.848;4.652;2023-02-07T09:01:01;0.70;99.90
34837;DHT22;21053;50.848;4.652;2023-02-07T09:03:28;0.80;99.90
34837;DHT22;21053;50.848;4.652;2023-02-07T09:06:46;0.70;99.90
34837;DHT22;21053;50.848;4.652;2023-02-07T09:09:15;0.80;99.90
34837;DHT22;21053;50.848;4.652;2023-02-07T09:11:44;0.80;99.90
34837;DHT22;21053;50.848;4.652;2023-02-07T09:14:13;0.90;99.90
34837;DHT22;21053;50.848;4.652;2023-02-07T09:16:41;0.90;99.90
34837;DHT22;21053;50.848;4.652;2023-02-07T09:21:15;1.10;99.90
34837;DHT22;21053;50.848;4.652;2023-02-07T09:23:43;1.40;99.90
34837;DHT22;21053;50.848;4.652;2023-02-07T09:26:20;1.40;99.90
34837;DHT22;21053;50.848;4.652;2023-02-07T09:28:48;1.40;99.90
34837;DHT22;21053;50.848;4.652;2023-02-07T09:31:17;1.40;99.90
34837;DHT22;21053;50.848;4.652;2023-02-07T09:33:43;1.30;99.90
34837;DHT22;21053;50.848;4.652;2023-02-07T09:36:27;1.50;99.90
34837;DHT22;21053;50.848;4.652;2023-02-07T09:38:53;1.70;99.90
34837;DHT22;21053;50.848;4.652;2023-02-07T09:45:41;1.80;99.90
34837;DHT22;21053;50.848;4.652;2023-02-07T09:48:36;1.90;99.90
34837;DHT22;21053;50.848;4.652;2023-02-07T09:51:09;2.10;99.90
34837;DHT22;21053;50.848;4.652;2023-02-07T09:55:56;2.30;99.90
34837;DHT22;21053;50.848;4.652;2023-02-07T10:03:19;2.30;99.90
34837;DHT22;21053;50.848;4.652;2023-02-07T10:05:59;2.40;99.90
34837;DHT22;21053;50.848;4.652;2023-02-07T10:08:28;2.50;99.90
34837;DHT22;21053;50.848;4.652;2023-02-07T10:11:24;2.60;99.90
34837;DHT22;21053;50.848;4.652;2023-02-07T10:16:46;2.70;99.90
34837;DHT22;21053;50.848;4.652;2023-02-07T10:19:41;2.70;99.90
34837;DHT22;21053;50.848;4.652;2023-02-07T10:22:38;2.80;99.90
34837;DHT22;21053;50.848;4.652;2023-02-07T10:28:08;3.00;99.90
34837;DHT22;21053;50.848;4.652;2023-02-07T10:30:51;3.20;99.90
34837;DHT22;21053;50.848;4.652;2023-02-07T10:33:23;3.40;99.90
34837;DHT22;21053;50.848;4.652;2023-02-07T10:35:49;3.20;99.90
34837;DHT22;21053;50.848;4.652;2023-02-07T10:38:20;3.40;99.90
34837;DHT22;21053;50.848;4.652;2023-02-07T10:41:34;3.60;99.90
34837;DHT22;21053;50.848;4.652;2023-02-07T10:44:11;3.60;99.90
34837;DHT22;21053;50.848;4.652;2023-02-07T10:47:11;3.80;99.90
34837;DHT22;21053;50.848;4.652;2023-02-07T10:49:37;4.20;99.90
34837;DHT22;21053;50.848;4.652;2023-02-07T10:55:45;9.50;99.90
34837;DHT22;21053;50.848;4.652;2023-02-07T10:58:16;14.10;91.40
34837;DHT22;21053;50.848;4.652;2023-02-07T11:00:52;16.10;82.00
34837;DHT22;21053;50.848;4.652;2023-02-07T11:03:25;16.90;77.30
34837;DHT22;21053;50.848;4.652;2023-02-07T11:06:01;17.30;72.70
34837;DHT22;21053;50.848;4.652;2023-02-07T11:08:32;17.30;69.20
34837;DHT22;21053;50.848;4.652;2023-02-07T11:11:25;18.10;68.70
34837;DHT22;21053;50.848;4.652;2023-02-07T11:14:02;17.30;65.90
34837;DHT22;21053;50.848;4.652;2023-02-07T11:16:31;16.20;66.60
34837;DHT22;21053;50.848;4.652;2023-02-07T11:19:03;15.80;68.60
34837;DHT22;21053;50.848;4.652;2023-02-07T11:21:34;15.90;65.90
34837;DHT22;21053;50.848;4.652;2023-02-07T11:26:46;15.50;70.50
34837;DHT22;21053;50.848;4.652;2023-02-07T11:29:19;17.00;64.20
34837;DHT22;21053;50.848;4.652;2023-02-07T11:31:49;16.70;62.10
34837;DHT22;21053;50.848;4.652;2023-02-07T11:34:41;16.70;63.30
34837;DHT22;21053;50.848;4.652;2023-02-07T11:39:54;18.00;58.90
34837;DHT22;21053;50.848;4.652;2023-02-07T11:42:29;20.50;57.30
34837;DHT22;21053;50.848;4.652;2023-02-07T11:45:03;22.80;50.80
34837;DHT22;21053;50.848;4.652;2023-02-07T11:47:32;24.60;48.50
34837;DHT22;21053;50.848;4.652;2023-02-07T11:50:06;23.80;45.50
34837;DHT22;21053;50.848;4.652;2023-02-07T11:52:35;24.20;44.70
34837;DHT22;21053;50.848;4.652;2023-02-07T11:55:08;24.70;41.90
34837;DHT22;21053;50.848;4.652;2023-02-07T11:57:40;26.20;42.90
34837;DHT22;21053;50.848;4.652;2023-02-07T12:00:25;26.50;40.10
34837;DHT22;21053;50.848;4.652;2023-02-07T12:06:14;27.90;38.40
34837;DHT22;21053;50.848;4.652;2023-02-07T12:08:41;27.50;37.90
34837;DHT22;21053;50.848;4.652;2023-02-07T12:11:16;28.30;37.50
34837;DHT22;21053;50.848;4.652;2023-02-07T12:13:58;28.50;37.50
34837;DHT22;21053;50.848;4.652;2023-02-07T12:16:35;27.50;36.50
34837;DHT22;21053;50.848;4.652;2023-02-07T12:19:20;27.50;36.70
34837;DHT22;21053;50.848;4.652;2023-02-07T12:22:16;28.20;36.40
34837;DHT22;21053;50.848;4.652;2023-02-07T12:24:51;28.20;35.10
34837;DHT22;21053;50.848;4.652;2023-02-07T12:27:29;28.10;34.70
34837;DHT22;21053;50.848;4.652;2023-02-07T12:37:50;26.40;36.90
34837;DHT22;21053;50.848;4.652;2023-02-07T12:40:37;23.40;38.40
34837;DHT22;21053;50.848;4.652;2023-02-07T12:43:10;22.30;39.70
34837;DHT22;21053;50.848;4.652;2023-02-07T12:48:40;24.00;36.80
34837;DHT22;21053;50.848;4.652;2023-02-07T13:13:08;21.90;40.50
34837;DHT22;21053;50.848;4.652;2023-02-07T13:27:40;22.20;40.50
34837;DHT22;21053;50.848;4.652;2023-02-07T13:30:13;22.30;40.60
34837;DHT22;21053;50.848;4.652;2023-02-07T13:32:40;21.60;42.80
34837;DHT22;21053;50.848;4.652;2023-02-07T13:35:17;21.70;41.20
34837;DHT22;21053;50.848;4.652;2023-02-07T13:40:59;22.10;41.00
34837;DHT22;21053;50.848;4.652;2023-02-07T13:46:38;20.40;42.90
34837;DHT22;21053;50.848;4.652;2023-02-07T13:49:23;18.30;46.30
34837;DHT22;21053;50.848;4.652;2023-02-07T13:52:25;16.30;49.20
34837;DHT22;21053;50.848;4.652;2023-02-07T13:57:52;13.50;55.90
34837;DHT22;21053;50.848;4.652;2023-02-07T14:03:23;12.10;58.90
34837;DHT22;21053;50.848;4.652;2023-02-07T14:07:03;11.50;59.00
34837;DHT22;21053;50.848;4.652;2023-02-07T14:09:44;11.10;60.70
34837;DHT22;21053;50.848;4.652;2023-02-07T14:12:31;10.70;60.60
34837;DHT22;21053;50.848;4.652;2023-02-07T14:18:46;10.50;62.30
34837;DHT22;21053;50.848;4.652;2023-02-07T14:21:23;10.20;64.40
34837;DHT22;21053;50.848;4.652;2023-02-07T14:24:23;10.00;65.20
34837;DHT22;21053;50.848;4.652;2023-02-07T14:26:59;9.90;65.50
34837;DHT22;21053;50.848;4.652;2023-02-07T14:32:00;9.90;65.40
34837;DHT22;21053;50.848;4.652;2023-02-07T14:34:57;9.80;63.20
34837;DHT22;21053;50.848;4.652;2023-02-07T14:37:37;9.70;64.70
34837;DHT22;21053;50.848;4.652;2023-02-07T14:40:32;9.70;64.60
34837;DHT22;21053;50.848;4.652;2023-02-07T14:43:05;9.60;64.80
34837;DHT22;21053;50.848;4.652;2023-02-07T14:45:35;9.50;64.90
34837;DHT22;21053;50.848;4.652;2023-02-07T14:48:02;9.50;66.20
34837;DHT22;21053;50.848;4.652;2023-02-07T14:50:29;9.40;64.40
34837;DHT22;21053;50.848;4.652;2023-02-07T14:53:04;9.20;66.00
34837;DHT22;21053;50.848;4.652;2023-02-07T14:55:41;9.20;68.30
34837;DHT22;21053;50.848;4.652;2023-02-07T14:58:24;9.10;67.40
34837;DHT22;21053;50.848;4.652;2023-02-07T15:00:56;9.30;66.30
34837;DHT22;21053;50.848;4.652;2023-02-07T15:03:30;9.10;65.40
34837;DHT22;21053;50.848;4.652;2023-02-07T15:06:02;9.10;67.10
34837;DHT22;21053;50.848;4.652;2023-02-07T15:08:32;9.10;66.70
34837;DHT22;21053;50.848;4.652;2023-02-07T15:11:05;9.00;66.10
34837;DHT22;21053;50.848;4.652;2023-02-07T15:13:49;8.80;67.30
34837;DHT22;21053;50.848;4.652;2023-02-07T15:16:32;8.80;68.60
34837;DHT22;21053;50.848;4.652;2023-02-07T15:19:13;8.80;68.60
34837;DHT22;21053;50.848;4.652;2023-02-07T15:21:44;8.60;70.00
34837;DHT22;21053;50.848;4.652;2023-02-07T15:27:01;8.40;70.00
34837;DHT22;21053;50.848;4.652;2023-02-07T15:29:33;8.30;70.90
34837;DHT22;21053;50.848;4.652;2023-02-07T15:31:59;8.30;69.60
34837;DHT22;21053;50.848;4.652;2023-02-07T15:34:31;8.10;69.60
34837;DHT22;21053;50.848;4.652;2023-02-07T15:36:59;7.80;72.10
34837;DHT22;21053;50.848;4.652;2023-02-07T15:39:39;7.80;71.70
34837;DHT22;21053;50.848;4.652;2023-02-07T15:42:19;7.80;72.10
34837;DHT22;21053;50.848;4.652;2023-02-07T15:44:57;7.70;72.90
34837;DHT22;21053;50.848;4.652;2023-02-07T15:47:34;7.50;74.00
34837;DHT22;21053;50.848;4.652;2023-02-07T15:50:24;7.40;74.60
34837;DHT22;21053;50.848;4.652;2023-02-07T15:52:59;7.30;74.70
34837;DHT22;21053;50.848;4.652;2023-02-07T15:55:45;7.40;75.20
34837;DHT22;21053;50.848;4.652;2023-02-07T15:58:43;7.50;74.00
34837;DHT22;21053;50.848;4.652;2023-02-07T16:01:35;7.50;73.40
34837;DHT22;21053;50.848;4.652;2023-02-07T16:04:04;7.40;74.30
34837;DHT22;21053;50.848;4.652;2023-02-07T16:06:30;7.40;74.30
34837;DHT22;21053;50.848;4.652;2023-02-07T16:09:01;7.30;75.50
34837;DHT22;21053;50.848;4.652;2023-02-07T16:11:34;7.20;74.60
34837;DHT22;21053;50.848;4.652;2023-02-07T16:14:23;7.30;75.20
34837;DHT22;21053;50.848;4.652;2023-02-07T16:16:57;7.10;74.50
34837;DHT22;21053;50.848;4.652;2023-02-07T16:19:30;7.10;76.00
34837;DHT22;21053;50.848;4.652;2023-02-07T16:22:10;7.50;75.80
34837;DHT22;21053;50.848;4.652;2023-02-07T16:24:42;6.90;76.90
34837;DHT22;21053;50.848;4.652;2023-02-07T16:27:19;7.00;78.30
34837;DHT22;21053;50.848;4.652;2023-02-07T16:29:55;6.90;80.00
34837;DHT22;21053;50.848;4.652;2023-02-07T16:32:25;6.90;82.00
34837;DHT22;21053;50.848;4.652;2023-02-07T16:35:31;6.90;80.30
34837;DHT22;21053;50.848;4.652;2023-02-07T16:38:00;6.80;82.00
34837;DHT22;21053;50.848;4.652;2023-02-07T16:40:29;6.50;83.40
34837;DHT22;21053;50.848;4.652;2023-02-07T16:49:46;6.20;84.80
34837;DHT22;21053;50.848;4.652;2023-02-07T17:08:43;5.20;90.40
34837;DHT22;21053;50.848;4.652;2023-02-07T17:11:15;5.20;90.40
34837;DHT22;21053;50.848;4.652;2023-02-07T17:13:42;5.10;90.60
34837;DHT22;21053;50.848;4.652;2023-02-07T17:16:13;5.10;90.60
34837;DHT22;21053;50.848;4.652;2023-02-07T17:18:41;5.00;90.80
34837;DHT22;21053;50.848;4.652;2023-02-07T17:21:10;4.60;92.10
34837;DHT22;21053;50.848;4.652;2023-02-07T17:23:40;4.60;91.90
34837;DHT22;21053;50.848;4.652;2023-02-07T17:26:12;4.30;92.60
34837;DHT22;21053;50.848;4.652;2023-02-07T17:28:41;4.30;92.60
34837;DHT22;21053;50.848;4.652;2023-02-07T17:31:10;4.20;92.70
34837;DHT22;21053;50.848;4.652;2023-02-07T17:33:36;4.20;93.10
34837;DHT22;21053;50.848;4.652;2023-02-07T17:36:03;4.00;93.60
34837;DHT22;21053;50.848;4.652;2023-02-07T17:38:31;3.80;94.50
34837;DHT22;21053;50.848;4.652;2023-02-07T17:41:01;3.90;94.60
34837;DHT22;21053;50.848;4.652;2023-02-07T17:43:30;4.00;94.60
34837;DHT22;21053;50.848;4.652;2023-02-07T17:46:05;3.90;94.70
34837;DHT22;21053;50.848;4.652;2023-02-07T17:51:53;3.80;95.00
34837;DHT22;21053;50.848;4.652;2023-02-07T17:54:18;3.80;94.50
34837;DHT22;21053;50.848;4.652;2023-02-07T18:21:33;3.30;96.40
34837;DHT22;21053;50.848;4.652;2023-02-07T19:06:12;2.40;99.20
34837;DHT22;21053;50.848;4.652;2023-02-07T19:08:44;2.20;99.10
34837;DHT22;21053;50.848;4.652;2023-02-07T19:11:11;2.30;99.60
34837;DHT22;21053;50.848;4.652;2023-02-07T19:13:38;3.80;99.90
34837;DHT22;21053;50.848;4.652;2023-02-07T19:16:10;2.20;99.90
34837;DHT22;21053;50.848;4.652;2023-02-07T19:57:42;1.40;99.90
34837;DHT22;21053;50.848;4.652;2023-02-07T20:13:11;1.50;99.90
34837;DHT22;21053;50.848;4.652;2023-02-07T20:15:49;1.80;99.90
34837;DHT22;21053;50.848;4.652;2023-02-07T20:18:18;1.80;99.90
34837;DHT22;21053;50.848;4.652;2023-02-07T20:20:48;1.90;99.90
34837;DHT22;21053;50.848;4.652;2023-02-07T20:23:23;1.70;99.90
34837;DHT22;21053;50.848;4.652;2023-02-07T20:26:07;1.50;99.90
34837;DHT22;21053;50.848;4.652;2023-02-07T20:31:55;1.40;99.90
34837;DHT22;21053;50.848;4.652;2023-02-07T20:34:24;1.40;99.90
34837;DHT22;21053;50.848;4.652;2023-02-07T20:36:52;1.30;99.90
34837;DHT22;21053;50.848;4.652;2023-02-07T20:39:20;1.20;99.90
34837;DHT22;21053;50.848;4.652;2023-02-07T20:41:50;1.10;99.90
34837;DHT22;21053;50.848;4.652;2023-02-07T20:44:21;1.00;99.90
34837;DHT22;21053;50.848;4.652;2023-02-07T20:46:49;1.10;99.90
34837;DHT22;21053;50.848;4.652;2023-02-07T20:49:23;1.10;99.90
34837;DHT22;21053;50.848;4.652;2023-02-07T20:51:52;1.00;99.90
34837;DHT22;21053;50.848;4.652;2023-02-07T20:54:23;1.00;99.90
34837;DHT22;21053;50.848;4.652;2023-02-07T21:00:18;0.80;99.90
34837;DHT22;21053;50.848;4.652;2023-02-07T21:02:48;0.80;99.90
34837;DHT22;21053;50.848;4.652;2023-02-07T21:08:56;0.70;99.90
34837;DHT22;21053;50.848;4.652;2023-02-07T21:14:15;0.70;99.90
34837;DHT22;21053;50.848;4.652;2023-02-07T21:17:11;0.60;99.90